KSTS

Charles M Schulz - Sonoma County Airport

Santa Rosa, California, USA
KSTS 161726Z 1618/1718 18005KT P6SM FEW010 FM162100 17012KT P6SM SKC FM170400 16005KT P6SM SKC FM170800 VRB03KT 6SM BR OVC005 FM171700 VRB03KT P6SM FEW010 AMD NOT SKED
Issued Valid From Valid To
Jul-16 @ 17:26 UTC
(3 hours ago)
Jul-16 @ 18:00 UTC
(2 hours ago)
Jul-17 @ 18:00 UTC
(in 22 hours)
Jul-16 @ 18:00 to Jul-16 @ 21:00
KSTS 161726Z 1618/1718 18005KT P6SM FEW010
Wind Visibility Clouds
180° at 5 knots Greater than 6 miles
  • Few at 1,000' AGL
From Jul-16 @ 21:00 to Jul-17 @ 04:00
FM162100 17012KT P6SM SKC
Wind Visibility Clouds
170° at 12 knots Greater than 6 miles
  • Clear skies
From Jul-17 @ 04:00 to Jul-17 @ 08:00
FM170400 16005KT P6SM SKC
Wind Visibility Clouds
160° at 5 knots Greater than 6 miles
  • Clear skies
From Jul-17 @ 08:00 to Jul-17 @ 17:00
FM170800 VRB03KT 6SM BR OVC005
Wind Visibility Clouds Conditions
Variable at 3 knots 6 miles
  • Overcast at 500' AGL
  • Mist
From Jul-17 @ 17:00 to Jul-17 @ 18:00
FM171700 VRB03KT P6SM FEW010 AMD NOT SKED
Wind Visibility Clouds
Variable at 3 knots Greater than 6 miles
  • Few at 1,000' AGL
KSTS 161726Z 1618/1718 18005KT P6SM FEW010 FM162100 17012KT P6SM SKC FM170400 16005KT P6SM SKC FM170800 VRB03KT 6SM BR OVC005 FM171700 VRB03KT P6SM FEW010 AMD NOT SKED
Issued Jul-16 @ 17:26 UTC
(3 hours ago)
Valid From Jul-16 @ 18:00 UTC
(2 hours ago)
Valid To Jul-17 @ 18:00 UTC
(in 22 hours)
Jul-16 @ 18:00 - Jul-16 @ 21:00
Wind Visibility
180° at 5 knots Greater than 6 miles
Clouds
  • Few at 1,000' AGL
From Jul-16 @ 21:00 - Jul-17 @ 04:00
Wind Visibility
170° at 12 knots Greater than 6 miles
Clouds
  • Clear skies
From Jul-17 @ 04:00 - Jul-17 @ 08:00
Wind Visibility
160° at 5 knots Greater than 6 miles
Clouds
  • Clear skies
From Jul-17 @ 08:00 - Jul-17 @ 17:00
Wind Visibility
Variable at 3 knots 6 miles
Clouds
  • Overcast at 500' AGL
Conditions
  • Mist
From Jul-17 @ 17:00 - Jul-17 @ 18:00
Wind Visibility
Variable at 3 knots Greater than 6 miles
Clouds
  • Few at 1,000' AGL